| time (UTC) | temp F | wind direction | speed knots | gust knots | rain 1hr in | rain 24hr in | rain mn in | humidity % | barometer mb |
| 20260506121740 | 50 | 300 | 0.9 | 3.5 | 0.01 | 0.69 | 0.09 | 94 | 1005.7 |
| 20260506120735 | 50 | 242 | 1.7 | 7.0 | 0.01 | 0.69 | 0.09 | 94 | 1006.0 |
| 20260506120233 | 50 | 283 | 2.6 | 8.7 | 0.00 | 0.68 | 0.09 | 94 | 1005.8 |
| 20260506114732 | 51 | 247 | 0.9 | 4.3 | 0.01 | 0.68 | 0.09 | 94 | 1005.6 |
| 20260506113733 | 51 | 262 | 1.7 | 7.0 | 0.01 | 0.68 | 0.09 | 94 | 1005.6 |
| 20260506112732 | 51 | 296 | 0.9 | 7.0 | 0.02 | 0.68 | 0.09 | 94 | 1005.4 |
| 20260506112233 | 51 | 268 | 1.7 | 8.7 | 0.02 | 0.68 | 0.09 | 94 | 1005.4 |
| 20260506110732 | 51 | 227 | 1.7 | 7.8 | 0.02 | 0.68 | 0.09 | 94 | 1005.4 |
| 20260506105732 | 51 | 245 | 0.9 | 5.2 | 0.02 | 0.68 | 0.09 | 94 | 1005.4 |
| 20260506104732 | 51 | 257 | 0.9 | 6.1 | 0.02 | 0.67 | 0.08 | 94 | 1005.4 |
| 20260506103732 | 51 | 269 | 1.7 | 7.0 | 0.02 | 0.67 | 0.08 | 94 | 1005.5 |
| 20260506102733 | 51 | 247 | 0.9 | 3.5 | 0.01 | 0.66 | 0.07 | 94 | 1005.4 |
| 20260506101730 | 51 | 271 | 0.9 | 5.2 | 0.02 | 0.66 | 0.07 | 94 | 1005.3 |
| 20260506100728 | 51 | 262 | 0.0 | 3.5 | 0.02 | 0.66 | 0.07 | 94 | 1005.2 |
| 20260506095729 | 51 | 246 | 1.7 | 6.1 | 0.02 | 0.66 | 0.07 | 94 | 1005.2 |
| 20260506094728 | 51 | 234 | 0.9 | 3.5 | 0.01 | 0.65 | 0.06 | 94 | 1005.2 |
| 20260506093729 | 51 | 294 | 0.0 | 0.9 | 0.01 | 0.65 | 0.06 | 94 | 1005.0 |
| 20260506092726 | 50 | 250 | 0.0 | 2.6 | 0.01 | 0.65 | 0.06 | 94 | 1005.1 |
| 20260506091724 | 50 | 225 | 0.0 | 3.5 | 0.00 | 0.65 | 0.06 | 94 | 1005.0 |
| 20260506090723 | 50 | 264 | 0.0 | 2.6 | 0.00 | 0.65 | 0.06 | 94 | 1005.0 |
| 20260506085717 | 50 | 232 | 0.9 | 3.5 | 0.00 | 0.65 | 0.06 | 94 | 1005.0 |
| 20260506084717 | 50 | 257 | 0.0 | 3.5 | 0.00 | 0.65 | 0.06 | 94 | 1004.8 |
| 20260506083716 | 50 | 249 | 0.0 | 1.7 | 0.00 | 0.65 | 0.06 | 94 | 1004.7 |
| 20260506082716 | 50 | 259 | 0.9 | 3.5 | 0.00 | 0.65 | 0.06 | 94 | 1004.8 |
| 20260506081717 | 50 | 294 | 0.9 | 6.1 | 0.00 | 0.65 | 0.06 | 94 | 1004.8 |
| 20260506080716 | 50 | 265 | 0.9 | 4.3 | 0.00 | 0.65 | 0.06 | 94 | 1004.7 |
| 20260506072716 | 50 | 235 | 0.0 | 0.0 | 0.00 | 0.65 | 0.06 | 94 | 1004.7 |
| 20260506071717 | 49 | 229 | 0.0 | 1.7 | 0.00 | 0.65 | 0.06 | 94 | 1004.6 |
| 20260506070716 | 49 | 240 | 0.0 | 2.6 | 0.01 | 0.65 | 0.06 | 94 | 1004.5 |
| 20260506061717 | 49 | 244 | 0.0 | 2.6 | 0.01 | 0.65 | 0.06 | 94 | 1004.4 |
| 20260506061218 | 49 | 270 | 0.0 | 1.7 | 0.01 | 0.64 | 0.05 | 94 | 1004.4 |
| 20260506050714 | 49 | 264 | 0.0 | 1.7 | 0.02 | 0.63 | 0.04 | 94 | 1004.4 |
| 20260506044707 | 49 | 246 | 0.0 | 2.6 | 0.00 | 0.61 | 0.02 | 94 | 1004.5 |
| 20260506043704 | 49 | 249 | 0.0 | 0.0 | 0.00 | 0.61 | 0.02 | 94 | 1004.5 |
| 20260506042704 | 49 | 250 | 0.0 | 2.6 | 0.00 | 0.61 | 0.02 | 94 | 1004.5 |
| 20260506041705 | 49 | 249 | 0.0 | 2.6 | 0.00 | 0.61 | 0.02 | 94 | 1004.5 |
| 20260506040704 | 49 | 265 | 0.0 | 3.5 | 0.00 | 0.61 | 0.02 | 94 | 1004.5 |
| 20260506035704 | 49 | 235 | 0.0 | 2.6 | 0.00 | 0.61 | 0.02 | 94 | 1004.5 |
| 20260506034702 | 49 | 242 | 0.0 | 0.0 | 0.00 | 0.61 | 0.02 | 94 | 1004.6 |
| 20260506033702 | 49 | 252 | 0.0 | 0.0 | 0.00 | 0.61 | 0.02 | 94 | 1004.5 |
| 20260506033203 | 49 | 265 | 0.0 | 0.0 | 0.00 | 0.61 | 0.02 | 94 | 1004.6 |
| 20260506031700 | 49 | 265 | 0.0 | 0.0 | 0.00 | 0.61 | 0.02 | 94 | 1004.6 |
| 20260506030700 | 49 | 255 | 0.0 | 0.9 | 0.00 | 0.61 | 0.02 | 94 | 1004.6 |
| 20260506030159 | 49 | 250 | 0.0 | 1.7 | 0.00 | 0.61 | 0.02 | 94 | 1004.7 |
| 20260506024658 | 49 | 273 | 0.0 | 2.6 | 0.00 | 0.61 | 0.02 | 94 | 1004.8 |
| 20260506023659 | 49 | 242 | 0.0 | 0.9 | 0.01 | 0.61 | 0.02 | 94 | 1004.8 |
| 20260506022658 | 49 | 270 | 0.0 | 3.5 | 0.01 | 0.61 | 0.02 | 94 | 1004.8 |
| 20260506021658 | 49 | 254 | 0.0 | 2.6 | 0.01 | 0.61 | 0.02 | 94 | 1004.9 |
| 20260506020658 | 49 | 270 | 0.9 | 5.2 | 0.01 | 0.61 | 0.02 | 93 | 1005.0 |
| 20260506015658 | 49 | 271 | 0.9 | 6.1 | 0.01 | 0.61 | 0.02 | 94 | 1005.1 |
| 20260506014658 | 49 | 281 | 0.9 | 5.2 | 0.01 | 0.61 | 0.02 | 94 | 1005.1 |
| 20260506013658 | 49 | 228 | 0.9 | 5.2 | 0.00 | 0.60 | 0.01 | 94 | 1005.2 |
| 20260506012659 | 49 | 261 | 0.9 | 7.0 | 0.00 | 0.60 | 0.01 | 94 | 1005.3 |
| 20260506012200 | 49 | 257 | 0.0 | 2.6 | 0.00 | 0.60 | 0.01 | 94 | 1005.3 |
| 20260506010658 | 49 | 251 | 0.0 | 3.5 | 0.00 | 0.60 | 0.01 | 94 | 1005.3 |
| 20260506005658 | 49 | 242 | 0.9 | 4.3 | 0.00 | 0.60 | 0.01 | 93 | 1005.4 |
| 20260506005159 | 49 | 257 | 0.9 | 2.6 | 0.00 | 0.60 | 0.01 | 93 | 1005.3 |
| 20260506003657 | 49 | 244 | 0.9 | 6.1 | 0.00 | 0.60 | 0.01 | 93 | 1005.4 |
| 20260506002652 | 50 | 283 | 0.0 | 4.3 | 0.00 | 0.60 | 0.01 | 93 | 1005.3 |
| 20260506001653 | 50 | 256 | 0.9 | 6.1 | 0.00 | 0.60 | 0.01 | 93 | 1005.5 |
| 20260506000652 | 50 | 228 | 0.9 | 7.0 | 0.00 | 0.60 | 0.01 | 93 | 1005.5 |
| 20260505235652 | 50 | 264 | 0.9 | 6.1 | 0.00 | 0.60 | 0.01 | 93 | 1005.6 |
| 20260505234652 | 50 | 273 | 0.9 | 4.3 | 0.00 | 0.60 | 0.01 | 93 | 1005.8 |
| 20260505233652 | 50 | 286 | 0.9 | 4.3 | 0.00 | 0.60 | 0.01 | 93 | 1005.9 |
| 20260505232652 | 50 | 213 | 0.0 | 3.5 | 0.00 | 0.60 | 0.01 | 93 | 1005.9 |
| 20260505231652 | 50 | 287 | 0.9 | 3.5 | 0.00 | 0.60 | 0.01 | 93 | 1005.8 |
| 20260505230655 | 50 | 265 | 0.9 | 5.2 | 0.00 | 0.60 | 0.01 | 93 | 1005.9 |
| 20260505230146 | 51 | 251 | 0.9 | 3.5 | 0.01 | 0.60 | 0.01 | 93 | 1005.9 |
| 20260505224646 | 51 | 254 | 0.9 | 3.5 | 0.01 | 0.60 | 0.01 | 93 | 1006.0 |
| 20260505224146 | 51 | 240 | 0.9 | 3.5 | 0.01 | 0.60 | 0.01 | 93 | 1006.1 |
| 20260505222646 | 51 | 226 | 0.9 | 3.5 | 0.01 | 0.60 | 0.01 | 93 | 1006.1 |
| 20260505221646 | 51 | 234 | 0.9 | 4.3 | 0.02 | 0.60 | 0.01 | 93 | 1006.0 |
| 20260505220646 | 51 | 232 | 0.9 | 6.1 | 0.02 | 0.60 | 0.01 | 93 | 1006.3 |
| 20260505215646 | 51 | 244 | 0.9 | 4.3 | 0.01 | 0.59 | 0.59 | 93 | 1006.0 |
| 20260505214645 | 51 | 236 | 0.9 | 3.5 | 0.02 | 0.59 | 0.59 | 93 | 1006.3 |
| 20260505213645 | 51 | 257 | 0.9 | 3.5 | 0.03 | 0.59 | 0.59 | 93 | 1006.4 |
| 20260505212638 | 51 | 240 | 0.9 | 3.5 | 0.04 | 0.59 | 0.59 | 93 | 1006.3 |
| 20260505211639 | 51 | 233 | 1.7 | 4.3 | 0.06 | 0.58 | 0.58 | 93 | 1006.3 |
| 20260505210639 | 51 | 218 | 0.9 | 3.5 | 0.07 | 0.58 | 0.58 | 93 | 1006.5 |
| 20260505205639 | 52 | 232 | 1.7 | 4.3 | 0.09 | 0.58 | 0.58 | 93 | 1006.4 |
| 20260505204639 | 52 | 246 | 1.7 | 7.0 | 0.10 | 0.57 | 0.57 | 93 | 1006.5 |
| 20260505203639 | 52 | 242 | 1.7 | 7.8 | 0.11 | 0.56 | 0.56 | 93 | 1006.5 |
| 20260505202638 | 52 | 250 | 1.7 | 5.2 | 0.12 | 0.55 | 0.55 | 93 | 1006.6 |
| 20260505201638 | 52 | 250 | 1.7 | 5.2 | 0.11 | 0.53 | 0.53 | 93 | 1006.5 |
| 20260505200638 | 52 | 222 | 1.7 | 4.3 | 0.12 | 0.51 | 0.51 | 93 | 1006.5 |
| 20260505195633 | 53 | 205 | 0.9 | 3.5 | 0.10 | 0.49 | 0.49 | 92 | 1006.4 |
| 20260505194632 | 53 | 222 | 0.9 | 6.1 | 0.11 | 0.46 | 0.46 | 93 | 1006.3 |
| 20260505194134 | 53 | 240 | 1.7 | 4.3 | 0.14 | 0.45 | 0.45 | 92 | 1006.1 |
| 20260505193137 | 53 | 229 | 1.7 | 3.5 | 0.13 | 0.43 | 0.43 | 92 | 1006.1 |
| 20260505191633 | 54 | 225 | 0.9 | 4.3 | 0.13 | 0.42 | 0.42 | 92 | 1006.1 |
| 20260505190633 | 54 | 276 | 0.9 | 3.5 | 0.11 | 0.39 | 0.39 | 93 | 1006.0 |
| 20260505185633 | 54 | 234 | 0.0 | 0.0 | 0.11 | 0.39 | 0.39 | 92 | 1006.0 |
| 20260505184632 | 54 | 233 | 0.0 | 1.7 | 0.09 | 0.35 | 0.35 | 92 | 1006.0 |
| 20260505183633 | 55 | 239 | 1.7 | 7.8 | 0.07 | 0.31 | 0.31 | 92 | 1006.0 |
| 20260505182632 | 55 | 258 | 0.0 | 1.7 | 0.07 | 0.30 | 0.30 | 92 | 1006.0 |
| 20260505181633 | 55 | 263 | 0.9 | 6.1 | 0.06 | 0.29 | 0.29 | 92 | 1006.0 |
| 20260505180632 | 55 | 229 | 1.7 | 6.1 | 0.06 | 0.28 | 0.28 | 92 | 1006.0 |
| 20260505175633 | 55 | 286 | 1.7 | 6.1 | 0.06 | 0.28 | 0.28 | 92 | 1006.3 |
| 20260505175133 | 55 | 216 | 1.7 | 7.0 | 0.05 | 0.26 | 0.26 | 92 | 1006.1 |
| 20260505173632 | 55 | 88 | 2.6 | 7.0 | 0.02 | 0.24 | 0.24 | 92 | 1006.0 |
| 20260505173133 | 55 | 120 | 0.0 | 2.6 | 0.02 | 0.23 | 0.23 | 92 | 1006.3 |
| 20260505171633 | 55 | 140 | 1.7 | 5.2 | 0.06 | 0.23 | 0.23 | 92 | 1006.3 |
| 20260505171134 | 55 | 82 | 2.6 | 6.1 | 0.09 | 0.22 | 0.22 | 92 | 1006.3 |
| 20260505165632 | 55 | 82 | 1.7 | 4.3 | 0.12 | 0.22 | 0.22 | 92 | 1006.3 |
| 20260505164631 | 55 | 86 | 1.7 | 3.5 | 0.12 | 0.21 | 0.21 | 91 | 1006.4 |
| 20260505163632 | 55 | 65 | 0.9 | 3.5 | 0.13 | 0.21 | 0.21 | 91 | 1006.5 |
| 20260505162632 | 56 | 80 | 1.7 | 3.5 | 0.13 | 0.20 | 0.20 | 91 | 1006.6 |
| 20260505161633 | 56 | 44 | 1.7 | 5.2 | 0.11 | 0.17 | 0.17 | 90 | 1006.5 |
| 20260505160632 | 56 | 81 | 1.7 | 3.5 | 0.09 | 0.14 | 0.13 | 90 | 1006.6 |
| 20260505152626 | 57 | 49 | 0.0 | 1.7 | 0.05 | 0.08 | 0.07 | 88 | 1006.7 |
| 20260505151624 | 57 | 308 | 0.0 | 1.7 | 0.03 | 0.06 | 0.06 | 87 | 1006.7 |
| 20260505150625 | 58 | 337 | 0.0 | 1.7 | 0.02 | 0.05 | 0.04 | 87 | 1006.7 |
| 20260505150123 | 58 | 333 | 0.0 | 2.6 | 0.01 | 0.04 | 0.03 | 87 | 1006.8 |
| 20260505140620 | 58 | 302 | 0.0 | 2.6 | 0.02 | 0.05 | 0.02 | 86 | 1007.1 |
| 20260505130113 | 60 | 331 | 0.9 | 5.2 | 0.00 | 0.02 | 0.00 | 80 | 1007.5 |
| 20260505124608 | 60 | 84 | 0.9 | 4.3 | 0.00 | 0.02 | 0.00 | 81 | 1007.6 |
| 20260505123609 | 60 | 5 | 0.9 | 5.2 | 0.00 | 0.02 | 0.00 | 82 | 1007.7 |